sensor_id;sensor_type;location;lat;lon;timestamp;pressure;altitude;pressure_sealevel;temperature;humidity
73941;BME280;62294;48.554;10.202;2023-04-01T00:00:52;95270.88;;;6.11;100.00
73941;BME280;62294;48.554;10.202;2023-04-01T00:03:20;95272.91;;;6.16;100.00
73941;BME280;62294;48.554;10.202;2023-04-01T00:05:48;95267.22;;;6.12;100.00
73941;BME280;62294;48.554;10.202;2023-04-01T00:08:15;95251.16;;;6.14;100.00
73941;BME280;62294;48.554;10.202;2023-04-01T00:10:42;95252.19;;;6.13;100.00
73941;BME280;62294;48.554;10.202;2023-04-01T00:13:09;95244.50;;;6.11;100.00
73941;BME280;62294;48.554;10.202;2023-04-01T00:15:36;95225.41;;;6.09;100.00
73941;BME280;62294;48.554;10.202;2023-04-01T00:18:02;95211.22;;;6.10;100.00
73941;BME280;62294;48.554;10.202;2023-04-01T00:20:29;95213.63;;;6.12;100.00
73941;BME280;62294;48.554;10.202;2023-04-01T00:22:56;95209.41;;;6.11;100.00
73941;BME280;62294;48.554;10.202;2023-04-01T00:25:23;95194.25;;;6.00;100.00
73941;BME280;62294;48.554;10.202;2023-04-01T00:27:50;95188.19;;;5.93;100.00
73941;BME280;62294;48.554;10.202;2023-04-01T00:30:17;95194.28;;;5.93;100.00
73941;BME280;62294;48.554;10.202;2023-04-01T00:32:43;95181.88;;;5.94;100.00
73941;BME280;62294;48.554;10.202;2023-04-01T00:35:11;95177.25;;;5.89;100.00
73941;BME280;62294;48.554;10.202;2023-04-01T00:37:39;95181.94;;;5.81;100.00
73941;BME280;62294;48.554;10.202;2023-04-01T00:40:24;95182.94;;;5.80;100.00
73941;BME280;62294;48.554;10.202;2023-04-01T00:42:51;95175.06;;;5.73;100.00
73941;BME280;62294;48.554;10.202;2023-04-01T00:47:50;95150.19;;;5.62;100.00
73941;BME280;62294;48.554;10.202;2023-04-01T00:50:17;95154.44;;;5.63;100.00
73941;BME280;62294;48.554;10.202;2023-04-01T00:52:44;95162.75;;;5.60;100.00
73941;BME280;62294;48.554;10.202;2023-04-01T00:55:12;95167.66;;;5.50;100.00
73941;BME280;62294;48.554;10.202;2023-04-01T00:57:42;95163.41;;;5.56;100.00
73941;BME280;62294;48.554;10.202;2023-04-01T01:00:12;95161.38;;;5.51;100.00
73941;BME280;62294;48.554;10.202;2023-04-01T01:02:41;95157.56;;;5.47;100.00
73941;BME280;62294;48.554;10.202;2023-04-01T01:05:14;95149.03;;;5.45;100.00
73941;BME280;62294;48.554;10.202;2023-04-01T01:08:04;95144.38;;;5.47;100.00
73941;BME280;62294;48.554;10.202;2023-04-01T01:10:38;95138.09;;;5.42;100.00
73941;BME280;62294;48.554;10.202;2023-04-01T01:26:59;95119.91;;;5.27;100.00
73941;BME280;62294;48.554;10.202;2023-04-01T01:29:51;95122.53;;;5.34;100.00
73941;BME280;62294;48.554;10.202;2023-04-01T01:37:52;95117.59;;;5.50;100.00
73941;BME280;62294;48.554;10.202;2023-04-01T01:40:20;95119.59;;;5.55;100.00
73941;BME280;62294;48.554;10.202;2023-04-01T01:42:50;95118.38;;;5.57;100.00
73941;BME280;62294;48.554;10.202;2023-04-01T01:45:21;95117.53;;;5.63;100.00
73941;BME280;62294;48.554;10.202;2023-04-01T01:47:51;94445.44;;;5.63;100.00
73941;BME280;62294;48.554;10.202;2023-04-01T01:50:19;94437.06;;;5.66;100.00
73941;BME280;62294;48.554;10.202;2023-04-01T01:52:45;94438.88;;;5.66;100.00
73941;BME280;62294;48.554;10.202;2023-04-01T01:57:50;94417.34;;;5.57;100.00
73941;BME280;62294;48.554;10.202;2023-04-01T02:00:18;94418.59;;;5.55;100.00
73941;BME280;62294;48.554;10.202;2023-04-01T02:02:46;94417.91;;;5.59;100.00
73941;BME280;62294;48.554;10.202;2023-04-01T02:05:20;94415.28;;;5.59;100.00
73941;BME280;62294;48.554;10.202;2023-04-01T02:07:53;94414.81;;;5.62;100.00
73941;BME280;62294;48.554;10.202;2023-04-01T02:10:22;94409.69;;;5.67;100.00
73941;BME280;62294;48.554;10.202;2023-04-01T02:12:53;94407.63;;;5.69;100.00
73941;BME280;62294;48.554;10.202;2023-04-01T02:15:24;94405.22;;;5.68;100.00
73941;BME280;62294;48.554;10.202;2023-04-01T02:17:54;94408.63;;;5.68;100.00
73941;BME280;62294;48.554;10.202;2023-04-01T02:20:24;94397.63;;;5.71;100.00
73941;BME280;62294;48.554;10.202;2023-04-01T02:22:53;94393.75;;;5.74;100.00
73941;BME280;62294;48.554;10.202;2023-04-01T02:25:24;94385.59;;;5.75;100.00
73941;BME280;62294;48.554;10.202;2023-04-01T02:27:53;94397.75;;;5.77;100.00
73941;BME280;62294;48.554;10.202;2023-04-01T02:30:21;94384.09;;;5.80;100.00
73941;BME280;62294;48.554;10.202;2023-04-01T02:32:48;94386.75;;;5.80;100.00
73941;BME280;62294;48.554;10.202;2023-04-01T02:35:16;94383.31;;;5.79;100.00
73941;BME280;62294;48.554;10.202;2023-04-01T02:37:45;94379.63;;;5.80;100.00
73941;BME280;62294;48.554;10.202;2023-04-01T02:40:14;94371.72;;;5.80;100.00
73941;BME280;62294;48.554;10.202;2023-04-01T02:42:41;94384.69;;;5.82;100.00
73941;BME280;62294;48.554;10.202;2023-04-01T02:45:08;94376.69;;;5.77;100.00
73941;BME280;62294;48.554;10.202;2023-04-01T02:47:34;94383.22;;;5.74;100.00
73941;BME280;62294;48.554;10.202;2023-04-01T02:50:03;94387.09;;;5.71;100.00
73941;BME280;62294;48.554;10.202;2023-04-01T02:52:30;94387.66;;;5.73;100.00
73941;BME280;62294;48.554;10.202;2023-04-01T02:54:57;94385.03;;;5.62;100.00
73941;BME280;62294;48.554;10.202;2023-04-01T02:57:24;94386.41;;;5.53;100.00
73941;BME280;62294;48.554;10.202;2023-04-01T02:59:51;94405.53;;;5.48;100.00
73941;BME280;62294;48.554;10.202;2023-04-01T03:02:18;94402.88;;;5.48;100.00
73941;BME280;62294;48.554;10.202;2023-04-01T03:04:45;94418.47;;;5.50;100.00
73941;BME280;62294;48.554;10.202;2023-04-01T03:07:11;94431.88;;;5.48;100.00
73941;BME280;62294;48.554;10.202;2023-04-01T03:09:38;94431.53;;;5.45;100.00
73941;BME280;62294;48.554;10.202;2023-04-01T03:12:05;94438.06;;;5.42;100.00
73941;BME280;62294;48.554;10.202;2023-04-01T03:14:32;94438.88;;;5.43;100.00
73941;BME280;62294;48.554;10.202;2023-04-01T03:16:58;94442.53;;;5.42;100.00
73941;BME280;62294;48.554;10.202;2023-04-01T03:19:25;94444.34;;;5.41;100.00
73941;BME280;62294;48.554;10.202;2023-04-01T03:21:52;94442.84;;;5.45;100.00
73941;BME280;62294;48.554;10.202;2023-04-01T03:24:19;94435.75;;;5.46;100.00
73941;BME280;62294;48.554;10.202;2023-04-01T03:26:46;94442.41;;;5.48;100.00
73941;BME280;62294;48.554;10.202;2023-04-01T03:29:12;94445.63;;;5.50;100.00
73941;BME280;62294;48.554;10.202;2023-04-01T03:31:41;94441.97;;;5.51;100.00
73941;BME280;62294;48.554;10.202;2023-04-01T03:34:08;94447.69;;;5.48;100.00
73941;BME280;62294;48.554;10.202;2023-04-01T03:36:35;94450.09;;;5.50;100.00
73941;BME280;62294;48.554;10.202;2023-04-01T03:39:01;94447.69;;;5.48;100.00
73941;BME280;62294;48.554;10.202;2023-04-01T03:41:29;94453.41;;;5.45;100.00
73941;BME280;62294;48.554;10.202;2023-04-01T03:43:56;94445.72;;;5.44;100.00
73941;BME280;62294;48.554;10.202;2023-04-01T03:46:23;94461.19;;;5.40;100.00
73941;BME280;62294;48.554;10.202;2023-04-01T03:48:50;94452.25;;;5.41;100.00
73941;BME280;62294;48.554;10.202;2023-04-01T03:51:16;94442.97;;;5.39;100.00
73941;BME280;62294;48.554;10.202;2023-04-01T03:53:43;94451.09;;;5.37;100.00
73941;BME280;62294;48.554;10.202;2023-04-01T03:56:10;94444.56;;;5.40;100.00
73941;BME280;62294;48.554;10.202;2023-04-01T03:58:37;94442.50;;;5.30;100.00
73941;BME280;62294;48.554;10.202;2023-04-01T04:01:19;94443.84;;;5.21;100.00
73941;BME280;62294;48.554;10.202;2023-04-01T04:03:48;94434.41;;;5.14;100.00
73941;BME280;62294;48.554;10.202;2023-04-01T04:06:17;94445.28;;;5.06;100.00
73941;BME280;62294;48.554;10.202;2023-04-01T04:08:44;94446.53;;;5.03;100.00
73941;BME280;62294;48.554;10.202;2023-04-01T04:11:11;94434.72;;;4.94;100.00
73941;BME280;62294;48.554;10.202;2023-04-01T04:13:38;94442.31;;;4.84;100.00
73941;BME280;62294;48.554;10.202;2023-04-01T04:16:04;94445.56;;;4.68;100.00
73941;BME280;62294;48.554;10.202;2023-04-01T04:18:31;94449.81;;;4.69;100.00
73941;BME280;62294;48.554;10.202;2023-04-01T04:20:57;94449.59;;;4.70;100.00
73941;BME280;62294;48.554;10.202;2023-04-01T04:23:24;94450.03;;;4.67;100.00
73941;BME280;62294;48.554;10.202;2023-04-01T04:26:02;94456.09;;;4.68;100.00
73941;BME280;62294;48.554;10.202;2023-04-01T04:28:29;94440.91;;;4.70;100.00
73941;BME280;62294;48.554;10.202;2023-04-01T04:30:57;94436.44;;;4.70;100.00
73941;BME280;62294;48.554;10.202;2023-04-01T04:33:27;94436.75;;;4.62;100.00
73941;BME280;62294;48.554;10.202;2023-04-01T04:35:55;94451.22;;;4.53;100.00
73941;BME280;62294;48.554;10.202;2023-04-01T04:38:23;94452.31;;;4.46;100.00
73941;BME280;62294;48.554;10.202;2023-04-01T04:40:50;94453.56;;;4.43;100.00
73941;BME280;62294;48.554;10.202;2023-04-01T04:43:18;94458.16;;;4.29;100.00
73941;BME280;62294;48.554;10.202;2023-04-01T04:45:45;94450.72;;;4.45;100.00
73941;BME280;62294;48.554;10.202;2023-04-01T04:48:13;94460.94;;;4.35;100.00
73941;BME280;62294;48.554;10.202;2023-04-01T04:50:47;94468.25;;;4.32;100.00
73941;BME280;62294;48.554;10.202;2023-04-01T04:53:17;94463.22;;;4.31;100.00
73941;BME280;62294;48.554;10.202;2023-04-01T04:55:49;94463.41;;;4.29;100.00
73941;BME280;62294;48.554;10.202;2023-04-01T04:58:17;94468.31;;;4.26;100.00
73941;BME280;62294;48.554;10.202;2023-04-01T05:00:44;94467.50;;;4.25;100.00
73941;BME280;62294;48.554;10.202;2023-04-01T05:03:11;94475.97;;;4.27;100.00
73941;BME280;62294;48.554;10.202;2023-04-01T05:05:39;94481.41;;;4.32;100.00
73941;BME280;62294;48.554;10.202;2023-04-01T05:08:06;94478.94;;;4.38;100.00
73941;BME280;62294;48.554;10.202;2023-04-01T05:10:32;94483.06;;;4.45;100.00
73941;BME280;62294;48.554;10.202;2023-04-01T05:12:59;94485.03;;;4.50;100.00
73941;BME280;62294;48.554;10.202;2023-04-01T05:15:25;94484.69;;;4.46;100.00
73941;BME280;62294;48.554;10.202;2023-04-01T05:17:52;94493.59;;;4.45;100.00
73941;BME280;62294;48.554;10.202;2023-04-01T05:20:19;94485.19;;;4.37;100.00
73941;BME280;62294;48.554;10.202;2023-04-01T05:22:45;94489.13;;;4.46;100.00
73941;BME280;62294;48.554;10.202;2023-04-01T05:25:12;94492.28;;;4.54;100.00
73941;BME280;62294;48.554;10.202;2023-04-01T05:27:38;94499.09;;;4.62;100.00
73941;BME280;62294;48.554;10.202;2023-04-01T05:30:05;94487.66;;;4.68;100.00
73941;BME280;62294;48.554;10.202;2023-04-01T05:32:32;94501.13;;;4.78;100.00
73941;BME280;62294;48.554;10.202;2023-04-01T05:34:59;94488.69;;;4.85;100.00
73941;BME280;62294;48.554;10.202;2023-04-01T05:37:26;94491.66;;;4.88;100.00
73941;BME280;62294;48.554;10.202;2023-04-01T05:39:52;94497.44;;;4.97;100.00
73941;BME280;62294;48.554;10.202;2023-04-01T05:42:19;94492.81;;;5.11;100.00
73941;BME280;62294;48.554;10.202;2023-04-01T05:44:45;94483.78;;;5.18;100.00
73941;BME280;62294;48.554;10.202;2023-04-01T05:47:12;94475.16;;;5.29;100.00
73941;BME280;62294;48.554;10.202;2023-04-01T05:49:38;94466.47;;;5.40;100.00
73941;BME280;62294;48.554;10.202;2023-04-01T05:52:05;94471.25;;;5.43;100.00
73941;BME280;62294;48.554;10.202;2023-04-01T05:54:31;94467.38;;;5.46;100.00
73941;BME280;62294;48.554;10.202;2023-04-01T05:56:58;94447.25;;;5.51;100.00
73941;BME280;62294;48.554;10.202;2023-04-01T05:59:24;94453.22;;;5.58;100.00
73941;BME280;62294;48.554;10.202;2023-04-01T06:01:51;94450.91;;;5.62;100.00
73941;BME280;62294;48.554;10.202;2023-04-01T06:04:18;94448.88;;;5.75;100.00
73941;BME280;62294;48.554;10.202;2023-04-01T06:06:44;94443.03;;;5.73;100.00
73941;BME280;62294;48.554;10.202;2023-04-01T06:09:15;94446.47;;;5.74;100.00
73941;BME280;62294;48.554;10.202;2023-04-01T06:22:08;94440.66;;;6.07;100.00
73941;BME280;62294;48.554;10.202;2023-04-01T06:30:38;94439.84;;;6.29;100.00
73941;BME280;62294;48.554;10.202;2023-04-01T06:36:14;94445.13;;;6.41;100.00
73941;BME280;62294;48.554;10.202;2023-04-01T06:47:49;94452.97;;;6.64;100.00
73941;BME280;62294;48.554;10.202;2023-04-01T06:53:25;94446.31;;;6.62;100.00
73941;BME280;62294;48.554;10.202;2023-04-01T06:56:01;94440.94;;;6.57;100.00
73941;BME280;62294;48.554;10.202;2023-04-01T06:58:37;94440.69;;;6.70;100.00
73941;BME280;62294;48.554;10.202;2023-04-01T07:01:10;94449.97;;;6.72;100.00
73941;BME280;62294;48.554;10.202;2023-04-01T07:03:51;94450.25;;;6.59;100.00
73941;BME280;62294;48.554;10.202;2023-04-01T07:06:31;94450.66;;;6.79;100.00
73941;BME280;62294;48.554;10.202;2023-04-01T07:09:02;94445.22;;;6.86;100.00
73941;BME280;62294;48.554;10.202;2023-04-01T07:11:34;94450.16;;;6.82;100.00
73941;BME280;62294;48.554;10.202;2023-04-01T07:14:05;94454.88;;;6.80;100.00
73941;BME280;62294;48.554;10.202;2023-04-01T07:16:53;94461.00;;;6.69;100.00
73941;BME280;62294;48.554;10.202;2023-04-01T07:19:28;94461.78;;;6.70;100.00
73941;BME280;62294;48.554;10.202;2023-04-01T07:22:01;94469.22;;;6.84;100.00
73941;BME280;62294;48.554;10.202;2023-04-01T07:24:40;94468.75;;;6.87;100.00
73941;BME280;62294;48.554;10.202;2023-04-01T07:27:11;94449.16;;;7.11;100.00
73941;BME280;62294;48.554;10.202;2023-04-01T07:29:38;94454.41;;;7.40;100.00
73941;BME280;62294;48.554;10.202;2023-04-01T07:32:09;94466.75;;;7.51;100.00
73941;BME280;62294;48.554;10.202;2023-04-01T07:34:51;94464.81;;;7.46;100.00
73941;BME280;62294;48.554;10.202;2023-04-01T07:37:27;94480.06;;;7.56;100.00
73941;BME280;62294;48.554;10.202;2023-04-01T07:45:32;94539.94;;;7.78;100.00
73941;BME280;62294;48.554;10.202;2023-04-01T07:51:15;94551.97;;;7.69;100.00
73941;BME280;62294;48.554;10.202;2023-04-01T07:59:17;94582.25;;;7.62;100.00
73941;BME280;62294;48.554;10.202;2023-04-01T08:04:36;94574.53;;;7.60;100.00
73941;BME280;62294;48.554;10.202;2023-04-01T08:07:14;94578.16;;;7.43;100.00
73941;BME280;62294;48.554;10.202;2023-04-01T08:12:52;94578.16;;;7.43;100.00
73941;BME280;62294;48.554;10.202;2023-04-01T08:15:25;94577.50;;;7.36;100.00
73941;BME280;62294;48.554;10.202;2023-04-01T08:20:53;94563.72;;;7.34;100.00
73941;BME280;62294;48.554;10.202;2023-04-01T08:23:26;94573.81;;;7.37;100.00
73941;BME280;62294;48.554;10.202;2023-04-01T08:26:10;94566.47;;;7.39;100.00
73941;BME280;62294;48.554;10.202;2023-04-01T08:31:37;94585.31;;;7.31;100.00
73941;BME280;62294;48.554;10.202;2023-04-01T08:34:10;94579.34;;;7.24;100.00
73941;BME280;62294;48.554;10.202;2023-04-01T08:36:43;94581.91;;;7.19;100.00
73941;BME280;62294;48.554;10.202;2023-04-01T08:39:46;94577.91;;;7.16;100.00
73941;BME280;62294;48.554;10.202;2023-04-01T08:42:35;94563.31;;;7.13;100.00
73941;BME280;62294;48.554;10.202;2023-04-01T08:53:20;94558.50;;;7.10;100.00
73941;BME280;62294;48.554;10.202;2023-04-01T09:12:54;94601.59;;;6.88;100.00
73941;BME280;62294;48.554;10.202;2023-04-01T09:15:37;94576.56;;;6.90;100.00
73941;BME280;62294;48.554;10.202;2023-04-01T09:26:17;94578.28;;;6.96;100.00
73941;BME280;62294;48.554;10.202;2023-04-01T09:37:19;94574.19;;;6.77;100.00
73941;BME280;62294;48.554;10.202;2023-04-01T09:40:02;94582.31;;;6.76;100.00
73941;BME280;62294;48.554;10.202;2023-04-01T09:42:43;94579.66;;;6.76;100.00
73941;BME280;62294;48.554;10.202;2023-04-01T09:45:27;94575.88;;;6.72;100.00
73941;BME280;62294;48.554;10.202;2023-04-01T09:50:56;94566.81;;;6.79;100.00
73941;BME280;62294;48.554;10.202;2023-04-01T09:53:48;94567.97;;;6.83;100.00
73941;BME280;62294;48.554;10.202;2023-04-01T09:56:59;94574.84;;;6.84;100.00
73941;BME280;62294;48.554;10.202;2023-04-01T10:07:55;94596.78;;;6.62;100.00
73941;BME280;62294;48.554;10.202;2023-04-01T10:18:56;94564.19;;;6.44;100.00
73941;BME280;62294;48.554;10.202;2023-04-01T10:22:01;94577.03;;;6.53;100.00
73941;BME280;62294;48.554;10.202;2023-04-01T10:44:05;94578.13;;;7.03;100.00
73941;BME280;62294;48.554;10.202;2023-04-01T10:47:12;94565.41;;;7.11;100.00
73941;BME280;62294;48.554;10.202;2023-04-01T10:50:07;94568.59;;;7.13;100.00
73941;BME280;62294;48.554;10.202;2023-04-01T10:55:44;94569.16;;;7.15;100.00
73941;BME280;62294;48.554;10.202;2023-04-01T11:04:30;94577.34;;;7.02;100.00
73941;BME280;62294;48.554;10.202;2023-04-01T11:07:24;94568.28;;;6.87;100.00
73941;BME280;62294;48.554;10.202;2023-04-01T11:13:25;94572.63;;;7.04;100.00
73941;BME280;62294;48.554;10.202;2023-04-01T11:19:21;94582.84;;;7.12;100.00
73941;BME280;62294;48.554;10.202;2023-04-01T11:27:57;94587.09;;;7.13;100.00
73941;BME280;62294;48.554;10.202;2023-04-01T11:31:15;94590.66;;;7.07;100.00
73941;BME280;62294;48.554;10.202;2023-04-01T11:34:05;94599.63;;;7.06;100.00
73941;BME280;62294;48.554;10.202;2023-04-01T11:36:45;94612.25;;;7.04;100.00
73941;BME280;62294;48.554;10.202;2023-04-01T11:47:58;94626.38;;;6.87;100.00
73941;BME280;62294;48.554;10.202;2023-04-01T11:50:46;94576.97;;;7.10;100.00
73941;BME280;62294;48.554;10.202;2023-04-01T11:53:45;94576.72;;;7.24;100.00
73941;BME280;62294;48.554;10.202;2023-04-01T11:56:22;94573.28;;;7.23;100.00
73941;BME280;62294;48.554;10.202;2023-04-01T11:59:08;94573.09;;;7.01;100.00
73941;BME280;62294;48.554;10.202;2023-04-01T12:02:03;94592.72;;;7.05;100.00
73941;BME280;62294;48.554;10.202;2023-04-01T12:16:15;94557.25;;;7.69;100.00
73941;BME280;62294;48.554;10.202;2023-04-01T12:22:03;94550.19;;;8.20;100.00
73941;BME280;62294;48.554;10.202;2023-04-01T12:24:57;94538.56;;;8.21;100.00
73941;BME280;62294;48.554;10.202;2023-04-01T12:27:39;94553.97;;;8.07;100.00
73941;BME280;62294;48.554;10.202;2023-04-01T12:30:50;94554.38;;;7.71;100.00
73941;BME280;62294;48.554;10.202;2023-04-01T12:36:30;94549.03;;;7.99;100.00
73941;BME280;62294;48.554;10.202;2023-04-01T12:42:12;94559.56;;;8.11;100.00
73941;BME280;62294;48.554;10.202;2023-04-01T12:45:15;94564.47;;;8.19;100.00
73941;BME280;62294;48.554;10.202;2023-04-01T12:48:08;94542.09;;;8.26;100.00
73941;BME280;62294;48.554;10.202;2023-04-01T12:51:05;94581.44;;;8.06;100.00
73941;BME280;62294;48.554;10.202;2023-04-01T12:54:02;94582.44;;;8.33;100.00
73941;BME280;62294;48.554;10.202;2023-04-01T12:59:31;94592.16;;;8.44;100.00
73941;BME280;62294;48.554;10.202;2023-04-01T13:04:59;94608.50;;;8.25;100.00
73941;BME280;62294;48.554;10.202;2023-04-01T13:10:31;94598.56;;;8.65;100.00
73941;BME280;62294;48.554;10.202;2023-04-01T13:18:59;94658.50;;;8.88;100.00
73941;BME280;62294;48.554;10.202;2023-04-01T13:27:03;94679.56;;;8.78;100.00
73941;BME280;62294;48.554;10.202;2023-04-01T13:32:36;94684.59;;;8.63;100.00
73941;BME280;62294;48.554;10.202;2023-04-01T13:43:36;94690.38;;;8.43;100.00
73941;BME280;62294;48.554;10.202;2023-04-01T13:46:38;94700.44;;;8.29;100.00
73941;BME280;62294;48.554;10.202;2023-04-01T13:51:55;94700.91;;;8.26;100.00
73941;BME280;62294;48.554;10.202;2023-04-01T13:54:36;94699.97;;;8.32;100.00
73941;BME280;62294;48.554;10.202;2023-04-01T14:03:30;94703.47;;;8.66;100.00
73941;BME280;62294;48.554;10.202;2023-04-01T14:06:06;94711.44;;;8.66;100.00
73941;BME280;62294;48.554;10.202;2023-04-01T14:19:56;94731.19;;;8.75;100.00
73941;BME280;62294;48.554;10.202;2023-04-01T14:25:51;94749.75;;;9.25;100.00
73941;BME280;62294;48.554;10.202;2023-04-01T14:28:58;94761.97;;;9.26;100.00
73941;BME280;62294;48.554;10.202;2023-04-01T14:34:23;94789.66;;;8.85;100.00
73941;BME280;62294;48.554;10.202;2023-04-01T14:37:30;94804.50;;;8.86;100.00
73941;BME280;62294;48.554;10.202;2023-04-01T14:42:49;94839.69;;;8.98;100.00
73941;BME280;62294;48.554;10.202;2023-04-01T14:48:23;94873.13;;;9.16;100.00
73941;BME280;62294;48.554;10.202;2023-04-01T14:50:54;94892.44;;;9.00;100.00
73941;BME280;62294;48.554;10.202;2023-04-01T14:55:56;94907.50;;;8.83;100.00
73941;BME280;62294;48.554;10.202;2023-04-01T14:58:44;94918.94;;;9.00;100.00
73941;BME280;62294;48.554;10.202;2023-04-01T15:01:21;94919.53;;;8.90;100.00
73941;BME280;62294;48.554;10.202;2023-04-01T15:04:10;94934.66;;;8.90;100.00
73941;BME280;62294;48.554;10.202;2023-04-01T15:14:25;94961.81;;;8.97;100.00
73941;BME280;62294;48.554;10.202;2023-04-01T15:17:16;94958.22;;;9.03;100.00
73941;BME280;62294;48.554;10.202;2023-04-01T15:20:21;94961.22;;;8.95;100.00
73941;BME280;62294;48.554;10.202;2023-04-01T15:23:19;94951.16;;;9.08;100.00
73941;BME280;62294;48.554;10.202;2023-04-01T15:26:13;94964.63;;;9.18;100.00
73941;BME280;62294;48.554;10.202;2023-04-01T15:29:00;94963.28;;;9.04;100.00
73941;BME280;62294;48.554;10.202;2023-04-01T15:36:52;94980.38;;;9.25;100.00
73941;BME280;62294;48.554;10.202;2023-04-01T15:42:43;94978.03;;;9.12;100.00
73941;BME280;62294;48.554;10.202;2023-04-01T15:45:39;94995.91;;;9.05;100.00
73941;BME280;62294;48.554;10.202;2023-04-01T16:07:17;95067.03;;;8.85;100.00
73941;BME280;62294;48.554;10.202;2023-04-01T16:09:56;95080.97;;;8.92;100.00
73941;BME280;62294;48.554;10.202;2023-04-01T16:15:50;95097.78;;;8.74;100.00
73941;BME280;62294;48.554;10.202;2023-04-01T16:18:43;95099.72;;;8.67;100.00
73941;BME280;62294;48.554;10.202;2023-04-01T16:21:27;95091.22;;;8.65;100.00
73941;BME280;62294;48.554;10.202;2023-04-01T16:24:03;95107.91;;;8.66;100.00
73941;BME280;62294;48.554;10.202;2023-04-01T16:26:39;95098.00;;;8.73;100.00
73941;BME280;62294;48.554;10.202;2023-04-01T16:34:56;95134.38;;;8.42;100.00
73941;BME280;62294;48.554;10.202;2023-04-01T16:41:05;95148.47;;;7.95;100.00
73941;BME280;62294;48.554;10.202;2023-04-01T16:43:48;95154.66;;;7.89;100.00
73941;BME280;62294;48.554;10.202;2023-04-01T16:46:27;95164.16;;;7.78;100.00
73941;BME280;62294;48.554;10.202;2023-04-01T16:51:46;95184.59;;;7.71;100.00
73941;BME280;62294;48.554;10.202;2023-04-01T16:56:54;95194.66;;;7.63;100.00
73941;BME280;62294;48.554;10.202;2023-04-01T16:59:35;95204.22;;;7.64;100.00
73941;BME280;62294;48.554;10.202;2023-04-01T17:04:47;95210.28;;;7.46;100.00
73941;BME280;62294;48.554;10.202;2023-04-01T17:18:33;95237.94;;;7.26;100.00
73941;BME280;62294;48.554;10.202;2023-04-01T17:21:08;95241.25;;;7.21;100.00
73941;BME280;62294;48.554;10.202;2023-04-01T17:23:43;95244.13;;;7.20;100.00
73941;BME280;62294;48.554;10.202;2023-04-01T17:29:05;95291.97;;;7.11;100.00
73941;BME280;62294;48.554;10.202;2023-04-01T17:45:53;95331.19;;;6.83;100.00
73941;BME280;62294;48.554;10.202;2023-04-01T17:48:46;95339.97;;;6.77;100.00
73941;BME280;62294;48.554;10.202;2023-04-01T17:54:15;95363.50;;;6.79;100.00
73941;BME280;62294;48.554;10.202;2023-04-01T17:59:56;95377.34;;;6.74;100.00
73941;BME280;62294;48.554;10.202;2023-04-01T18:07:56;95400.94;;;6.69;100.00
73941;BME280;62294;48.554;10.202;2023-04-01T18:10:38;95392.63;;;6.66;100.00
73941;BME280;62294;48.554;10.202;2023-04-01T18:13:38;95399.13;;;6.70;100.00
73941;BME280;62294;48.554;10.202;2023-04-01T18:21:56;95415.59;;;6.65;100.00
73941;BME280;62294;48.554;10.202;2023-04-01T18:24:40;95410.91;;;6.67;100.00
73941;BME280;62294;48.554;10.202;2023-04-01T18:27:31;95418.59;;;6.75;100.00
73941;BME280;62294;48.554;10.202;2023-04-01T18:30:13;95405.84;;;6.66;100.00
73941;BME280;62294;48.554;10.202;2023-04-01T18:32:51;95415.97;;;6.69;100.00
73941;BME280;62294;48.554;10.202;2023-04-01T18:38:13;95407.25;;;6.68;100.00
73941;BME280;62294;48.554;10.202;2023-04-01T18:44:05;95407.88;;;6.57;100.00
73941;BME280;62294;48.554;10.202;2023-04-01T18:46:55;95411.53;;;6.63;100.00
73941;BME280;62294;48.554;10.202;2023-04-01T18:49:39;95418.03;;;6.60;100.00
73941;BME280;62294;48.554;10.202;2023-04-01T19:01:07;95435.09;;;6.58;100.00
73941;BME280;62294;48.554;10.202;2023-04-01T19:03:43;95432.69;;;6.56;100.00
73941;BME280;62294;48.554;10.202;2023-04-01T19:06:23;95445.09;;;6.49;100.00
73941;BME280;62294;48.554;10.202;2023-04-01T19:08:53;95430.13;;;6.36;100.00
73941;BME280;62294;48.554;10.202;2023-04-01T19:11:25;95440.88;;;6.35;100.00
73941;BME280;62294;48.554;10.202;2023-04-01T19:20:20;95442.72;;;6.28;100.00
73941;BME280;62294;48.554;10.202;2023-04-01T19:23:13;95450.22;;;6.31;100.00
73941;BME280;62294;48.554;10.202;2023-04-01T19:25:53;95440.88;;;6.35;100.00
73941;BME280;62294;48.554;10.202;2023-04-01T19:30:57;95426.84;;;6.34;100.00
73941;BME280;62294;48.554;10.202;2023-04-01T19:39:11;95418.50;;;6.44;100.00
73941;BME280;62294;48.554;10.202;2023-04-01T19:42:03;95403.06;;;6.48;100.00
73941;BME280;62294;48.554;10.202;2023-04-01T19:44:54;95403.88;;;6.48;100.00
73941;BME280;62294;48.554;10.202;2023-04-01T19:50:21;95396.13;;;6.53;100.00
73941;BME280;62294;48.554;10.202;2023-04-01T19:52:56;95377.88;;;6.52;100.00
73941;BME280;62294;48.554;10.202;2023-04-01T19:55:37;95384.16;;;6.51;100.00
73941;BME280;62294;48.554;10.202;2023-04-01T19:58:15;95379.31;;;6.48;100.00
73941;BME280;62294;48.554;10.202;2023-04-01T20:03:32;95381.16;;;6.47;100.00
73941;BME280;62294;48.554;10.202;2023-04-01T20:12:15;95392.03;;;6.64;100.00
73941;BME280;62294;48.554;10.202;2023-04-01T20:14:48;95398.06;;;6.77;100.00
73941;BME280;62294;48.554;10.202;2023-04-01T20:23:02;95373.44;;;6.39;100.00
73941;BME280;62294;48.554;10.202;2023-04-01T20:25:51;95389.59;;;6.18;100.00
73941;BME280;62294;48.554;10.202;2023-04-01T20:36:45;95420.06;;;5.68;100.00
73941;BME280;62294;48.554;10.202;2023-04-01T20:39:35;95423.13;;;5.52;100.00
73941;BME280;62294;48.554;10.202;2023-04-01T20:47:51;95447.03;;;5.50;100.00
73941;BME280;62294;48.554;10.202;2023-04-01T20:50:37;95457.16;;;5.53;100.00
73941;BME280;62294;48.554;10.202;2023-04-01T20:53:26;95465.28;;;5.52;100.00